Time;durP1;ratioP1;P1;durP2;ratioP2;P2;SDS_P1;SDS_P2;PMS_P1;PMS_P2;Temp;Humidity;BMP_temperature;BMP_pressure;BME280_temperature;BME280_humidity;BME280_pressure;Samples;Min_cycle;Max_cycle;Signal;HPM_P1;HPM_P2
2023/01/14 00:01:03;;;;;;;;;;;;;;;5.94;100.00;101650.81;4993165;28;20028;-82
2023/01/14 00:03:28;;;;;;;;;;;;;;;5.94;100.00;101640.34;4993432;28;19925;-81
2023/01/14 00:05:55;;;;;;;;;;;;;;;5.95;100.00;101655.09;4994526;28;19922;-82
2023/01/14 00:08:20;;;;;;;;;;;;;;;5.96;100.00;101648.06;4999066;28;19992;-82
2023/01/14 00:10:45;;;;;;;;;;;;;;;5.99;100.00;101645.28;5013777;28;20080;-81
2023/01/14 00:13:10;;;;;;;;;;;;;;;6.01;100.00;101646.00;4997692;28;19932;-82
2023/01/14 00:15:36;;;;;;;;;;;;;;;6.01;100.00;101659.13;5015077;28;20407;-82
2023/01/14 00:18:01;;;;;;;;;;;;;;;6.02;100.00;101658.16;4996736;28;20024;-83
2023/01/14 00:20:27;;;;;;;;;;;;;;;6.04;100.00;101660.69;4997981;28;19937;-82
2023/01/14 00:22:53;;;;;;;;;;;;;;;6.07;100.00;101666.53;4997235;28;20061;-81
2023/01/14 00:25:19;;;;;;;;;;;;;;;6.10;100.00;101657.66;4998779;28;20020;-82
2023/01/14 00:27:45;;;;;;;;;;;;;;;6.12;100.00;101661.03;5014745;28;20007;-82
2023/01/14 00:30:10;;;;;;;;;;;;;;;6.11;100.00;101661.97;4997458;28;20401;-82
2023/01/14 00:32:35;;;;;;;;;;;;;;;6.09;100.00;101669.06;5013414;28;19917;-82
2023/01/14 00:35:01;;;;;;;;;;;;;;;6.08;100.00;101660.38;5013858;28;19937;-82
2023/01/14 00:37:26;;;;;;;;;;;;;;;6.06;100.00;101669.28;5013491;28;20000;-82
2023/01/14 00:39:51;;;;;;;;;;;;;;;6.03;100.00;101678.19;5013783;28;19929;-82
2023/01/14 00:42:17;;;;;;;;;;;;;;;6.04;100.00;101682.50;5001804;28;20035;-82
2023/01/14 00:44:42;;;;;;;;;;;;;;;5.98;100.00;101682.88;4997066;28;20542;-83
2023/01/14 00:47:07;;;;;;;;;;;;;;;5.94;100.00;101697.09;4998824;28;20001;-82
2023/01/14 00:49:32;;;;;;;;;;;;;;;5.91;100.00;101713.00;5028143;28;19921;-82
2023/01/14 00:52:00;;;;;;;;;;;;;;;5.85;100.00;101706.38;4997961;28;19964;-82
2023/01/14 00:54:26;;;;;;;;;;;;;;;5.85;100.00;101714.22;5028880;28;19972;-82
2023/01/14 00:56:51;;;;;;;;;;;;;;;5.84;100.00;101722.22;4996576;28;20345;-82
2023/01/14 00:59:18;;;;;;;;;;;;;;;5.83;100.00;101731.00;4997348;28;19976;-82
2023/01/14 01:01:43;;;;;;;;;;;;;;;5.82;100.00;101734.56;4996433;28;19914;-82
2023/01/14 01:04:09;;;;;;;;;;;;;;;5.80;100.00;101741.69;4999364;28;19922;-82
2023/01/14 01:06:34;;;;;;;;;;;;;;;5.75;100.00;101740.19;4998514;28;19933;-82
2023/01/14 01:09:00;;;;;;;;;;;;;;;5.73;100.00;101742.06;4998151;28;19953;-82
2023/01/14 01:11:26;;;;;;;;;;;;;;;5.73;100.00;101749.91;4999586;28;20045;-82
2023/01/14 01:13:51;;;;;;;;;;;;;;;5.73;100.00;101747.31;5028231;28;20021;-82
2023/01/14 01:16:17;;;;;;;;;;;;;;;5.75;100.00;101760.31;5019041;28;19914;-82
2023/01/14 01:18:42;;;;;;;;;;;;;;;5.73;100.00;101757.78;5032757;28;20369;-81
2023/01/14 01:21:09;;;;;;;;;;;;;;;5.69;100.00;101753.66;4998017;28;19921;-81
2023/01/14 01:23:35;;;;;;;;;;;;;;;5.63;100.00;101748.81;5028577;28;20272;-81
2023/01/14 01:26:01;;;;;;;;;;;;;;;5.62;100.00;101748.88;5005351;28;19918;-81
2023/01/14 01:28:27;;;;;;;;;;;;;;;5.60;100.00;101754.25;4996861;28;19913;-82
2023/01/14 01:30:52;;;;;;;;;;;;;;;5.57;100.00;101747.44;4997811;28;19988;-81
2023/01/14 01:33:17;;;;;;;;;;;;;;;5.58;100.00;101743.03;5013022;28;20040;-82
2023/01/14 01:35:43;;;;;;;;;;;;;;;5.56;100.00;101742.28;4998375;28;20028;-81
2023/01/14 01:38:08;;;;;;;;;;;;;;;5.54;100.00;101731.88;4997735;28;19922;-81
2023/01/14 01:40:33;;;;;;;;;;;;;;;5.52;100.00;101733.75;4998010;28;19922;-82
2023/01/14 01:43:00;;;;;;;;;;;;;;;5.51;100.00;101726.03;4996128;28;19921;-81
2023/01/14 01:45:38;;;;;;;;;;;;;;;5.47;100.00;101711.44;5003418;28;20365;-81
2023/01/14 01:48:06;;;;;;;;;;;;;;;5.48;100.00;101719.16;4995490;28;19961;-82
2023/01/14 01:50:32;;;;;;;;;;;;;;;5.45;100.00;101713.31;4997711;28;20415;-81
2023/01/14 01:52:57;;;;;;;;;;;;;;;5.45;100.00;101711.53;4995664;28;20000;-81
2023/01/14 01:55:23;;;;;;;;;;;;;;;5.44;100.00;101722.91;4995828;28;19918;-82
2023/01/14 01:57:55;;;;;;;;;;;;;;;5.47;100.00;101724.53;4997997;28;20381;-82
2023/01/14 02:00:21;;;;;;;;;;;;;;;5.50;100.00;101735.63;4995825;28;19913;-82
2023/01/14 02:02:48;;;;;;;;;;;;;;;5.59;100.00;101734.22;4996002;28;20393;-82
2023/01/14 02:05:14;;;;;;;;;;;;;;;5.65;100.00;101739.06;4996948;28;20020;-82
2023/01/14 02:07:39;;;;;;;;;;;;;;;5.65;100.00;101739.06;4997380;28;20024;-82
2023/01/14 02:10:05;;;;;;;;;;;;;;;5.66;100.00;101743.38;4997447;28;19921;-82
2023/01/14 02:12:30;;;;;;;;;;;;;;;5.65;100.00;101733.84;4987790;28;19921;-82
2023/01/14 02:14:56;;;;;;;;;;;;;;;5.68;100.00;101732.78;4995501;28;19918;-82
2023/01/14 02:17:29;;;;;;;;;;;;;;;5.70;100.00;101736.16;4997198;28;20000;-82
2023/01/14 02:20:14;;;;;;;;;;;;;;;5.70;100.00;101708.19;4996431;28;19914;-82
2023/01/14 02:22:58;;;;;;;;;;;;;;;5.67;100.00;101703.16;4992717;28;19929;-82
2023/01/14 02:25:26;;;;;;;;;;;;;;;5.67;100.00;101692.69;5011946;28;19918;-82
2023/01/14 02:27:54;;;;;;;;;;;;;;;5.65;100.00;101689.31;5003633;28;20526;-82
2023/01/14 02:30:36;;;;;;;;;;;;;;;5.66;100.00;101677.91;4994748;28;19925;-82
2023/01/14 02:33:08;;;;;;;;;;;;;;;5.67;100.00;101684.81;4995955;28;19921;-82
2023/01/14 02:35:46;;;;;;;;;;;;;;;5.69;100.00;101679.50;4996656;28;19961;-82
2023/01/14 02:38:27;;;;;;;;;;;;;;;5.58;100.00;101654.00;5027543;28;19918;-82
2023/01/14 02:40:55;;;;;;;;;;;;;;;5.63;100.00;101675.47;4997503;28;19925;-81
2023/01/14 02:46:13;;;;;;;;;;;;;;;5.60;100.00;101667.00;4995840;28;19972;-82
2023/01/14 02:48:38;;;;;;;;;;;;;;;5.61;100.00;101653.78;4995499;28;20378;-81
2023/01/14 02:51:04;;;;;;;;;;;;;;;5.58;100.00;101638.28;4996192;28;20060;-81
2023/01/14 02:53:29;;;;;;;;;;;;;;;5.47;100.00;101619.81;4999063;28;19949;-82
2023/01/14 02:55:55;;;;;;;;;;;;;;;5.42;100.00;101611.38;4994415;28;19921;-82
2023/01/14 02:58:27;;;;;;;;;;;;;;;5.29;100.00;101601.72;5011603;28;20373;-82
2023/01/14 03:00:55;;;;;;;;;;;;;;;5.21;100.00;101611.81;4995767;28;19968;-81
2023/01/14 03:03:39;;;;;;;;;;;;;;;5.17;100.00;101612.09;4995486;28;20378;-82
2023/01/14 03:06:10;;;;;;;;;;;;;;;5.12;100.00;101604.53;4995746;28;20349;-82
2023/01/14 03:08:41;;;;;;;;;;;;;;;5.07;100.00;101610.03;4994636;28;19924;-82
2023/01/14 03:11:08;;;;;;;;;;;;;;;5.08;100.00;101613.53;5003517;28;20448;-82
2023/01/14 03:13:40;;;;;;;;;;;;;;;5.06;100.00;101616.22;5024879;28;19921;-82
2023/01/14 03:16:12;;;;;;;;;;;;;;;5.07;100.00;101617.06;4994577;28;19917;-82
2023/01/14 03:18:38;;;;;;;;;;;;;;;5.06;100.00;101621.47;4995679;28;20297;-80
2023/01/14 03:21:08;;;;;;;;;;;;;;;5.06;100.00;101629.31;4996306;28;19917;-82
2023/01/14 03:23:36;;;;;;;;;;;;;;;5.05;100.00;101617.19;5027113;28;20440;-81
2023/01/14 03:26:02;;;;;;;;;;;;;;;5.09;100.00;101618.63;4995909;28;19928;-82
2023/01/14 03:28:34;;;;;;;;;;;;;;;5.07;100.00;101617.06;4993964;28;19924;-82
2023/01/14 03:31:00;;;;;;;;;;;;;;;4.99;100.00;101611.44;4994970;28;20349;-82
2023/01/14 03:33:40;;;;;;;;;;;;;;;4.96;100.00;101607.25;5027330;28;20479;-82
2023/01/14 03:36:06;;;;;;;;;;;;;;;4.92;100.00;101604.00;4994958;28;20011;-82
2023/01/14 03:38:36;;;;;;;;;;;;;;;4.93;100.00;101605.69;4994912;28;20073;-82
2023/01/14 03:41:03;;;;;;;;;;;;;;;4.94;100.00;101617.84;4995811;28;20008;-81
2023/01/14 03:43:29;;;;;;;;;;;;;;;4.96;100.00;101612.47;5027870;28;20028;-82
2023/01/14 03:45:54;;;;;;;;;;;;;;;4.97;100.00;101602.88;4997857;28;20452;-81
2023/01/14 03:48:20;;;;;;;;;;;;;;;4.99;100.00;101609.69;5006597;28;20544;-81
2023/01/14 03:50:58;;;;;;;;;;;;;;;4.96;100.00;101602.03;5007518;28;19918;-82
2023/01/14 03:53:33;;;;;;;;;;;;;;;4.94;100.00;101607.38;4999184;28;20012;-82
2023/01/14 03:56:17;;;;;;;;;;;;;;;4.95;100.00;101592.50;4997807;28;19969;-82
2023/01/14 03:58:46;;;;;;;;;;;;;;;4.93;100.00;101591.75;4997754;28;19918;-82
2023/01/14 04:01:15;;;;;;;;;;;;;;;4.90;100.00;101590.19;4999403;28;19924;-82
2023/01/14 04:03:41;;;;;;;;;;;;;;;4.88;100.00;101573.75;5027992;28;20337;-82
2023/01/14 04:06:08;;;;;;;;;;;;;;;4.86;100.00;101562.53;5028715;28;19913;-82
2023/01/14 04:08:33;;;;;;;;;;;;;;;4.82;100.00;101555.81;4999671;28;19918;-81
2023/01/14 04:10:58;;;;;;;;;;;;;;;4.80;100.00;101549.84;4999515;28;20651;-82
2023/01/14 04:16:08;;;;;;;;;;;;;;;4.74;100.00;101547.59;4997921;28;19968;-82
2023/01/14 04:18:33;;;;;;;;;;;;;;;4.71;100.00;101539.94;4999957;28;19926;-82
2023/01/14 04:20:58;;;;;;;;;;;;;;;4.66;100.00;101542.00;4997571;28;19918;-82
2023/01/14 04:23:25;;;;;;;;;;;;;;;4.63;100.00;101550.88;4999378;28;20076;-81
2023/01/14 04:25:57;;;;;;;;;;;;;;;4.60;100.00;101552.84;4983426;28;20385;-82
2023/01/14 04:28:22;;;;;;;;;;;;;;;4.59;100.00;101544.13;5014554;28;19922;-81
2023/01/14 04:30:48;;;;;;;;;;;;;;;4.56;100.00;101533.88;5013944;28;19931;-82
2023/01/14 04:33:13;;;;;;;;;;;;;;;4.59;100.00;101538.06;5029917;28;19918;-82
2023/01/14 04:35:39;;;;;;;;;;;;;;;4.57;100.00;101524.25;5029957;28;19917;-82
2023/01/14 04:38:04;;;;;;;;;;;;;;;4.56;100.00;101533.06;4998724;28;19924;-82
2023/01/14 04:40:30;;;;;;;;;;;;;;;4.52;100.00;101514.91;4999145;28;19922;-81
2023/01/14 04:42:55;;;;;;;;;;;;;;;4.49;100.00;101522.97;4997522;28;19971;-81
2023/01/14 04:45:20;;;;;;;;;;;;;;;4.44;100.00;101511.97;4997006;28;19922;-82
2023/01/14 04:47:48;;;;;;;;;;;;;;;4.43;100.00;101517.28;4996943;28;19917;-82
2023/01/14 04:50:31;;;;;;;;;;;;;;;4.38;100.00;101507.09;4999242;28;19953;-81
2023/01/14 04:53:03;;;;;;;;;;;;;;;4.33;100.00;101515.22;4998791;28;19929;-82
2023/01/14 04:55:29;;;;;;;;;;;;;;;4.29;100.00;101524.19;4998249;28;20367;-82
2023/01/14 04:57:54;;;;;;;;;;;;;;;4.32;100.00;101531.81;5027859;28;19914;-82
2023/01/14 05:00:19;;;;;;;;;;;;;;;4.36;100.00;101548.16;4997782;28;20227;-81
2023/01/14 05:02:45;;;;;;;;;;;;;;;4.39;100.00;101540.13;4996073;28;19918;-81
2023/01/14 05:05:10;;;;;;;;;;;;;;;4.32;100.00;101538.84;4999773;28;19961;-82
2023/01/14 05:07:35;;;;;;;;;;;;;;;4.37;100.00;101543.78;4998060;28;20377;-82
2023/01/14 05:10:01;;;;;;;;;;;;;;;4.35;100.00;101535.19;4998370;28;20037;-82
2023/01/14 05:12:26;;;;;;;;;;;;;;;4.31;100.00;101538.00;5013607;28;19965;-82
2023/01/14 05:14:51;;;;;;;;;;;;;;;4.29;100.00;101536.38;5013587;28;20016;-82
2023/01/14 05:17:16;;;;;;;;;;;;;;;4.27;100.00;101538.28;5004262;28;19918;-82
2023/01/14 05:19:42;;;;;;;;;;;;;;;4.27;100.00;101544.34;4997566;28;19925;-81
2023/01/14 05:22:07;;;;;;;;;;;;;;;4.23;100.00;101548.06;5012864;28;19918;-81
2023/01/14 05:24:32;;;;;;;;;;;;;;;4.24;100.00;101539.28;4996998;28;19944;-82
2023/01/14 05:26:58;;;;;;;;;;;;;;;4.21;100.00;101543.88;5013227;28;19917;-82
2023/01/14 05:29:23;;;;;;;;;;;;;;;4.16;100.00;101538.06;4995724;28;20390;-83
2023/01/14 05:31:49;;;;;;;;;;;;;;;4.17;100.00;101535.38;5027013;28;20497;-81
2023/01/14 05:34:17;;;;;;;;;;;;;;;4.13;100.00;101536.47;4996786;28;19921;-80
2023/01/14 05:36:42;;;;;;;;;;;;;;;4.12;100.00;101537.41;4997370;28;20456;-81
2023/01/14 05:39:07;;;;;;;;;;;;;;;4.12;100.00;101525.19;4997868;28;19922;-82
2023/01/14 05:41:33;;;;;;;;;;;;;;;4.12;100.00;101535.63;5028850;28;19918;-80
2023/01/14 05:46:42;;;;;;;;;;;;;;;4.16;100.00;101540.66;4995576;28;20408;-81
2023/01/14 05:49:07;;;;;;;;;;;;;;;4.15;100.00;101545.06;4998406;28;19918;-81
2023/01/14 05:51:32;;;;;;;;;;;;;;;4.18;100.00;101541.41;4997605;28;19989;-81
2023/01/14 05:53:58;;;;;;;;;;;;;;;4.21;100.00;101538.63;4995451;28;19922;-82
2023/01/14 05:56:23;;;;;;;;;;;;;;;4.23;100.00;101536.78;4995765;28;20376;-82
2023/01/14 05:58:48;;;;;;;;;;;;;;;4.24;100.00;101531.44;5003050;28;19917;-82
2023/01/14 06:06:48;;;;;;;;;;;;;;;4.30;100.00;101533.69;4997929;28;19952;-81
2023/01/14 06:09:14;;;;;;;;;;;;;;;4.29;100.00;101518.09;4995399;28;19921;-82
2023/01/14 06:11:40;;;;;;;;;;;;;;;4.30;100.00;101522.41;5027546;28;19944;-82
2023/01/14 06:14:06;;;;;;;;;;;;;;;4.29;100.00;101518.97;4994285;28;19925;-82
2023/01/14 06:16:38;;;;;;;;;;;;;;;4.30;100.00;101507.56;4995987;28;19937;-82
2023/01/14 06:19:04;;;;;;;;;;;;;;;4.30;100.00;101517.19;4996988;28;19922;-82
2023/01/14 06:21:30;;;;;;;;;;;;;;;4.30;100.00;101509.34;4997436;28;19921;-81
2023/01/14 06:23:56;;;;;;;;;;;;;;;4.30;100.00;101509.34;4996840;28;19932;-82
2023/01/14 06:26:23;;;;;;;;;;;;;;;4.29;100.00;101512.88;4995812;28;20008;-82
2023/01/14 06:28:49;;;;;;;;;;;;;;;4.29;100.00;101523.31;5026854;28;20366;-82
2023/01/14 06:31:15;;;;;;;;;;;;;;;4.27;100.00;101523.44;4995551;28;19918;-82
2023/01/14 06:33:41;;;;;;;;;;;;;;;4.29;100.00;101532.03;4996190;28;19921;-82
2023/01/14 06:36:07;;;;;;;;;;;;;;;4.30;100.00;101522.41;5028219;28;20269;-82
2023/01/14 06:38:32;;;;;;;;;;;;;;;4.31;100.00;101529.28;4996861;28;20088;-82
2023/01/14 06:40:59;;;;;;;;;;;;;;;4.31;100.00;101524.94;4994632;28;20266;-81
2023/01/14 06:43:24;;;;;;;;;;;;;;;4.31;100.00;101529.28;4995624;28;19923;-82
2023/01/14 06:45:52;;;;;;;;;;;;;;;4.28;100.00;101524.28;4996408;28;20414;-81
2023/01/14 06:48:18;;;;;;;;;;;;;;;4.26;100.00;101519.13;5010608;28;19944;-82
2023/01/14 06:50:43;;;;;;;;;;;;;;;4.28;100.00;101529.50;4997472;28;20020;-82
2023/01/14 06:53:08;;;;;;;;;;;;;;;4.31;100.00;101529.28;5011831;28;19926;-81
2023/01/14 06:55:36;;;;;;;;;;;;;;;4.32;100.00;101531.81;4995633;28;20012;-82
2023/01/14 06:58:02;;;;;;;;;;;;;;;4.31;100.00;101534.53;4996993;28;20004;-82
2023/01/14 07:00:27;;;;;;;;;;;;;;;4.29;100.00;101537.25;5027366;28;20373;-82
2023/01/14 07:02:52;;;;;;;;;;;;;;;4.33;100.00;101545.72;4994302;28;19929;-81
2023/01/14 07:05:17;;;;;;;;;;;;;;;4.32;100.00;101536.22;5026230;28;19925;-82
2023/01/14 07:07:46;;;;;;;;;;;;;;;4.32;100.00;101534.44;5011857;28;19921;-83
2023/01/14 07:10:11;;;;;;;;;;;;;;;4.33;100.00;101537.88;4996143;28;19944;-81
2023/01/14 07:12:36;;;;;;;;;;;;;;;4.33;100.00;101533.53;4995264;28;20306;-82
2023/01/14 07:15:03;;;;;;;;;;;;;;;4.31;100.00;101535.38;4994648;28;19953;-82
2023/01/14 07:17:29;;;;;;;;;;;;;;;4.33;100.00;101511.75;5002773;28;20004;-81
2023/01/14 07:19:54;;;;;;;;;;;;;;;4.34;100.00;101510.84;4994080;28;20441;-81
2023/01/14 07:22:19;;;;;;;;;;;;;;;4.34;100.00;101508.22;4996031;28;19976;-81
2023/01/14 07:24:44;;;;;;;;;;;;;;;4.33;100.00;101506.53;5010476;28;20389;-80
2023/01/14 07:27:10;;;;;;;;;;;;;;;4.36;100.00;101506.34;5026633;28;20008;-81
2023/01/14 07:29:35;;;;;;;;;;;;;;;4.35;100.00;101509.88;4998688;28;19937;-82
2023/01/14 07:32:01;;;;;;;;;;;;;;;4.36;100.00;101503.75;5001947;28;19945;-82
2023/01/14 07:34:26;;;;;;;;;;;;;;;4.37;100.00;101494.94;5011909;28;19925;-81
2023/01/14 07:36:52;;;;;;;;;;;;;;;4.38;100.00;101490.56;5011605;28;20057;-81
2023/01/14 07:39:17;;;;;;;;;;;;;;;4.35;100.00;101475.91;4994687;28;19921;-82
2023/01/14 07:41:42;;;;;;;;;;;;;;;4.40;100.00;101471.25;5003325;28;19926;-82
2023/01/14 07:44:08;;;;;;;;;;;;;;;4.42;100.00;101456.31;4993198;28;19929;-82
2023/01/14 07:46:33;;;;;;;;;;;;;;;4.41;100.00;101446.78;5010884;28;19922;-82
2023/01/14 07:48:59;;;;;;;;;;;;;;;4.41;100.00;101441.56;5007977;28;20247;-82
2023/01/14 07:51:24;;;;;;;;;;;;;;;4.42;100.00;101448.50;4994564;28;20036;-81
2023/01/14 07:53:50;;;;;;;;;;;;;;;4.45;100.00;101435.22;4995628;28;19918;-80
2023/01/14 07:56:15;;;;;;;;;;;;;;;4.47;100.00;101435.97;4994943;28;19935;-80
2023/01/14 07:58:41;;;;;;;;;;;;;;;4.46;100.00;101433.44;4992617;28;20285;-80
2023/01/14 08:01:07;;;;;;;;;;;;;;;4.49;100.00;101431.47;5021024;28;20004;-78
2023/01/14 08:03:32;;;;;;;;;;;;;;;4.50;100.00;101430.53;4993710;28;20118;-78
2023/01/14 08:06:01;;;;;;;;;;;;;;;4.51;100.00;101436.63;4993593;28;19922;-78
2023/01/14 08:08:27;;;;;;;;;;;;;;;4.54;100.00;101436.41;4994314;28;20318;-78
2023/01/14 08:10:53;;;;;;;;;;;;;;;4.56;100.00;101445.00;4992698;28;20028;-78
2023/01/14 08:13:18;;;;;;;;;;;;;;;4.59;100.00;101439.56;4992125;28;19935;-78
2023/01/14 08:15:43;;;;;;;;;;;;;;;4.59;100.00;101434.34;4993598;28;19913;-78
2023/01/14 08:18:09;;;;;;;;;;;;;;;4.61;100.00;101423.78;4991509;28;19921;-78
2023/01/14 08:20:34;;;;;;;;;;;;;;;4.65;100.00;101435.75;4987627;28;20669;-77
2023/01/14 08:22:59;;;;;;;;;;;;;;;4.65;100.00;101425.28;4991017;28;19925;-78
2023/01/14 08:25:26;;;;;;;;;;;;;;;4.67;100.00;101436.47;4991534;28;19925;-79
2023/01/14 08:27:51;;;;;;;;;;;;;;;4.67;100.00;101431.25;4995586;28;20620;-78
2023/01/14 08:30:16;;;;;;;;;;;;;;;4.67;100.00;101433.88;5009524;28;19929;-78
2023/01/14 08:32:41;;;;;;;;;;;;;;;4.67;100.00;101436.47;5003666;28;19977;-79
2023/01/14 08:35:07;;;;;;;;;;;;;;;4.66;100.00;101435.66;4997552;28;19971;-78
